Time;durP1;ratioP1;P1;durP2;ratioP2;P2;SDS_P1;SDS_P2;PMS_P1;PMS_P2;Temp;Humidity;BMP_temperature;BMP_pressure;BME280_temperature;BME280_humidity;BME280_pressure;Samples;Min_cycle;Max_cycle;Signal;HPM_P1;HPM_P2
2022/03/31 00:00:46;;;;;;;6.20;1.80;;;;;;;2.08;97.88;100333.78;4963803;28;20058;-76
2022/03/31 00:03:17;;;;;;;3.50;2.38;;;;;;;2.04;98.47;100320.22;4953193;28;20057;-79
2022/03/31 00:05:51;;;;;;;4.72;2.20;;;;;;;1.79;98.49;100299.50;4981757;28;20125;-77
2022/03/31 00:08:45;;;;;;;6.50;2.30;;;;;;;1.76;99.11;100287.59;4946741;28;20612;-79
2022/03/31 00:11:14;;;;;;;5.25;2.22;;;;;;;2.05;98.78;100344.34;4947060;28;20530;-78
2022/03/31 00:13:41;;;;;;;3.90;2.13;;;;;;;1.98;98.74;100341.34;4965101;28;20063;-78
2022/03/31 00:16:07;;;;;;;5.82;2.35;;;;;;;2.00;99.82;100336.03;4941907;28;20038;-76
2022/03/31 00:18:33;;;;;;;3.88;2.60;;;;;;;2.00;98.56;100336.88;4978405;28;20043;-77
2022/03/31 00:21:00;;;;;;;5.18;2.63;;;;;;;1.98;99.39;100336.16;4936154;28;20042;-76
2022/03/31 00:23:26;;;;;;;5.55;2.65;;;;;;;1.98;100.00;100337.91;4966352;28;20066;-76
2022/03/31 00:25:52;;;;;;;5.35;2.58;;;;;;;1.96;100.00;100338.03;4934288;29;20560;-78
2022/03/31 00:28:18;;;;;;;4.25;2.45;;;;;;;1.90;100.00;100331.50;4985542;28;20049;-75
2022/03/31 00:30:43;;;;;;;5.43;2.70;;;;;;;1.85;100.00;100324.97;4967781;28;20257;-76
2022/03/31 00:33:09;;;;;;;4.80;3.00;;;;;;;1.85;100.00;100333.56;4938070;28;20030;-78
2022/03/31 00:35:35;;;;;;;5.55;3.08;;;;;;;1.79;100.00;100333.97;4961632;28;20057;-77
2022/03/31 00:38:00;;;;;;;5.53;3.15;;;;;;;1.64;100.00;100309.94;4966123;28;20492;-75
2022/03/31 00:40:27;;;;;;;6.85;3.03;;;;;;;1.67;100.00;100332.97;4967421;28;20089;-80
2022/03/31 00:42:57;;;;;;;7.15;3.17;;;;;;;1.60;100.00;100320.53;4948920;28;20142;-77
2022/03/31 00:45:25;;;;;;;6.70;3.47;;;;;;;1.63;100.00;100326.34;4937280;28;20043;-78
2022/03/31 00:47:52;;;;;;;5.13;3.72;;;;;;;1.59;100.00;100331.84;4931593;28;20051;-78
2022/03/31 00:50:19;;;;;;;6.10;3.75;;;;;;;1.48;100.00;100317.81;4965041;28;20046;-77
2022/03/31 00:52:44;;;;;;;9.15;3.92;;;;;;;1.39;100.00;100315.81;4979816;28;20041;-78
2022/03/31 00:55:14;;;;;;;5.93;4.03;;;;;;;1.36;100.00;100326.38;4965221;28;20050;-77
2022/03/31 00:57:42;;;;;;;7.25;4.25;;;;;;;1.38;100.00;100321.94;4947842;28;20037;-79
2022/03/31 01:00:09;;;;;;;7.32;4.13;;;;;;;1.33;100.00;100314.47;4952103;28;20112;-78
2022/03/31 01:02:37;;;;;;;6.80;4.05;;;;;;;1.30;100.00;100314.69;4981127;28;20093;-75
2022/03/31 01:05:04;;;;;;;6.38;4.00;;;;;;;1.31;100.00;100318.91;4960739;28;20039;-77
2022/03/31 01:07:29;;;;;;;7.88;4.70;;;;;;;1.14;100.00;100311.41;4964500;28;20054;-76
2022/03/31 01:09:57;;;;;;;9.30;4.40;;;;;;;1.17;100.00;100309.44;4963859;28;20085;-75
2022/03/31 01:12:23;;;;;;;9.20;4.70;;;;;;;1.17;100.00;100301.69;4962837;28;20045;-76
2022/03/31 01:15:09;;;;;;;8.23;5.10;;;;;;;1.17;100.00;100304.28;4956856;28;20097;-77
2022/03/31 01:17:36;;;;;;;7.63;4.80;;;;;;;1.09;100.00;100303.94;4953914;28;20407;-77
2022/03/31 01:20:05;;;;;;;8.35;4.97;;;;;;;1.04;100.00;100294.84;4960032;28;20042;-78
2022/03/31 01:22:31;;;;;;;7.10;4.45;;;;;;;1.14;100.00;100296.72;4959489;28;20338;-75
2022/03/31 01:25:02;;;;;;;9.38;4.70;;;;;;;1.09;100.00;100290.19;4947873;28;20034;-77
2022/03/31 01:27:29;;;;;;;7.90;5.43;;;;;;;1.01;100.00;100292.44;4950247;28;20093;-74
2022/03/31 01:29:55;;;;;;;10.85;5.20;;;;;;;1.06;100.00;100283.47;4966799;28;20038;-75
2022/03/31 01:32:21;;;;;;;11.63;5.78;;;;;;;0.99;100.00;100279.59;4962808;28;20035;-75
2022/03/31 01:34:47;;;;;;;7.57;5.10;;;;;;;0.83;100.00;100264.25;4966609;28;20049;-76
2022/03/31 01:37:14;;;;;;;7.78;5.22;;;;;;;0.92;100.00;100276.59;4932515;28;20053;-77
2022/03/31 01:39:40;;;;;;;13.50;6.60;;;;;;;0.84;100.00;100272.81;4967323;28;20100;-77
2022/03/31 01:42:06;;;;;;;11.63;6.13;;;;;;;0.73;100.00;100271.72;4951642;28;20035;-79
2022/03/31 01:44:33;;;;;;;9.48;6.45;;;;;;;0.70;100.00;100274.50;4965060;28;20050;-78
2022/03/31 01:46:58;;;;;;;10.57;6.85;;;;;;;0.61;100.00;100267.31;4949766;28;20149;-78
2022/03/31 01:49:24;;;;;;;9.63;6.38;;;;;;;0.63;100.00;100268.06;4963220;28;20143;-79
2022/03/31 01:51:50;;;;;;;12.32;6.50;;;;;;;0.63;100.00;100272.41;4937713;28;20118;-79
2022/03/31 01:54:17;;;;;;;11.90;6.57;;;;;;;0.68;100.00;100275.50;4950258;28;20113;-78
2022/03/31 01:56:44;;;;;;;9.00;6.93;;;;;;;0.65;100.00;100273.94;4983903;28;20069;-79
2022/03/31 01:59:10;;;;;;;12.13;7.63;;;;;;;0.65;100.00;100279.13;4949485;28;20030;-79
2022/03/31 02:01:35;;;;;;;10.45;7.00;;;;;;;0.63;100.00;100262.91;4950750;28;20030;-77
2022/03/31 02:04:01;;;;;;;10.70;7.10;;;;;;;0.71;100.00;100277.91;4949607;28;20446;-79
2022/03/31 02:06:27;;;;;;;11.60;7.43;;;;;;;0.70;100.00;100279.66;4976545;28;20069;-77
2022/03/31 02:08:52;;;;;;;12.30;7.40;;;;;;;0.68;100.00;100276.34;4959244;28;20043;-78
2022/03/31 02:11:18;;;;;;;9.40;6.55;;;;;;;0.70;100.00;100277.09;4950188;28;20845;-79
2022/03/31 02:13:44;;;;;;;9.40;7.28;;;;;;;0.64;100.00;100279.19;4966657;28;20046;-78
2022/03/31 02:16:10;;;;;;;9.70;7.07;;;;;;;0.63;100.00;100282.72;4959513;28;20039;-77
2022/03/31 02:18:36;;;;;;;13.48;7.40;;;;;;;0.60;100.00;100273.41;4981119;28;20692;-78
2022/03/31 02:21:02;;;;;;;10.25;7.88;;;;;;;0.54;100.00;100269.44;4966654;28;20043;-77
2022/03/31 02:23:28;;;;;;;11.82;7.57;;;;;;;0.59;100.00;100271.75;4959764;28;20070;-78
2022/03/31 02:25:53;;;;;;;11.35;7.32;;;;;;;0.62;100.00;100274.13;4971562;28;20480;-78
2022/03/31 02:28:19;;;;;;;11.88;7.80;;;;;;;0.60;100.00;100265.66;4945478;28;20436;-79
2022/03/31 02:30:44;;;;;;;13.00;7.90;;;;;;;0.65;100.00;100271.38;4989155;28;20039;-77
2022/03/31 02:33:10;;;;;;;12.15;7.63;;;;;;;0.57;100.00;100266.69;4939553;28;20042;-77
2022/03/31 02:35:36;;;;;;;14.13;8.40;;;;;;;0.55;100.00;100265.94;4955065;28;20070;-80
2022/03/31 02:38:02;;;;;;;11.70;7.28;;;;;;;0.58;100.00;100265.78;4935079;28;20094;-77
2022/03/31 02:40:27;;;;;;;11.18;8.10;;;;;;;0.56;100.00;100264.19;4953896;28;20580;-77
2022/03/31 02:42:53;;;;;;;9.77;8.02;;;;;;;0.56;100.00;100265.00;4955024;28;20050;-79
2022/03/31 02:45:20;;;;;;;15.02;8.82;;;;;;;0.52;100.00;100270.47;4951898;28;20053;-79
2022/03/31 02:47:46;;;;;;;12.15;8.43;;;;;;;0.48;100.00;100256.09;4966180;28;20838;-77
2022/03/31 02:50:13;;;;;;;14.60;8.93;;;;;;;0.44;100.00;100258.03;4968004;28;20113;-78
2022/03/31 02:55:26;;;;;;;14.85;8.52;;;;;;;0.37;100.00;100254.16;4967110;28;20042;-80
2022/03/31 02:57:52;;;;;;;13.63;9.45;;;;;;;0.39;100.00;100270.38;4940202;28;20860;-76
2022/03/31 03:00:19;;;;;;;14.65;10.27;;;;;;;0.40;100.00;100272.03;4953140;28;20489;-75
2022/03/31 03:02:45;;;;;;;13.02;9.32;;;;;;;0.35;100.00;100263.75;4964310;28;20047;-78
2022/03/31 03:05:11;;;;;;;13.05;9.52;;;;;;;0.29;100.00;100262.38;4964343;28;20033;-76
2022/03/31 03:07:36;;;;;;;14.73;10.85;;;;;;;0.31;100.00;100268.25;4926474;28;20031;-74
2022/03/31 03:10:02;;;;;;;17.45;10.65;;;;;;;0.15;100.00;100270.09;4953725;28;20105;-77
2022/03/31 03:12:28;;;;;;;12.82;10.27;;;;;;;0.13;100.00;100275.38;4953566;28;20046;-78
2022/03/31 03:14:53;;;;;;;15.80;10.80;;;;;;;0.09;100.00;100257.56;4950181;28;20038;-77
2022/03/31 03:17:19;;;;;;;14.27;10.60;;;;;;;0.04;100.00;100269.91;4929791;28;20405;-76
2022/03/31 03:19:45;;;;;;;15.18;11.57;;;;;;;-0.05;100.00;100268.72;4943969;28;20042;-76
2022/03/31 03:22:10;;;;;;;17.10;11.85;;;;;;;-0.15;100.00;100265.00;4948511;28;20030;-76
2022/03/31 03:24:39;;;;;;;17.42;12.15;;;;;;;-0.28;100.00;100259.75;4982608;28;20039;-79
2022/03/31 03:27:05;;;;;;;14.70;12.27;;;;;;;-0.24;100.00;100263.78;4935284;28;20381;-77
2022/03/31 03:29:30;;;;;;;15.93;12.13;;;;;;;-0.31;100.00;100260.72;4966360;28;20093;-78
2022/03/31 03:31:56;;;;;;;16.92;12.65;;;;;;;-0.41;100.00;100269.91;4937026;28;20035;-76
2022/03/31 03:34:22;;;;;;;16.15;12.95;;;;;;;-0.41;100.00;100267.34;4948797;28;20913;-77
2022/03/31 03:36:47;;;;;;;19.25;13.27;;;;;;;-0.44;100.00;100275.25;4949976;28;20560;-75
2022/03/31 03:39:14;;;;;;;18.73;12.93;;;;;;;-0.46;100.00;100262.44;4967497;28;20039;-76
2022/03/31 03:41:40;;;;;;;20.60;13.45;;;;;;;-0.50;100.00;100279.00;4967955;28;20053;-76
2022/03/31 03:44:07;;;;;;;17.67;13.85;;;;;;;-0.50;100.00;100273.03;4964948;28;20043;-77
2022/03/31 03:46:33;;;;;;;16.25;12.55;;;;;;;-0.59;100.00;100258.91;4967376;28;20476;-76
2022/03/31 03:48:58;;;;;;;20.27;14.30;;;;;;;-0.56;100.00;100265.66;4952651;28;20038;-76
2022/03/31 03:51:24;;;;;;;17.25;14.45;;;;;;;-0.63;100.00;100257.41;4951183;28;20050;-76
2022/03/31 03:53:51;;;;;;;18.35;13.75;;;;;;;-0.62;100.00;100261.66;4948849;28;20062;-78
2022/03/31 03:56:17;;;;;;;18.10;14.77;;;;;;;-0.66;100.00;100268.75;4966335;28;20126;-76
2022/03/31 03:58:43;;;;;;;21.35;14.32;;;;;;;-0.66;100.00;100262.72;4965432;28;20562;-76
2022/03/31 04:01:09;;;;;;;19.35;15.23;;;;;;;-0.67;100.00;100268.81;4957912;28;20035;-78
2022/03/31 04:03:35;;;;;;;20.38;15.10;;;;;;;-0.69;100.00;100270.66;4951337;28;20048;-76
2022/03/31 04:06:01;;;;;;;18.85;14.52;;;;;;;-0.70;100.00;100264.66;4952663;28;20113;-78
2022/03/31 04:08:27;;;;;;;20.63;15.90;;;;;;;-0.80;100.00;100254.03;4953791;28;20373;-80
2022/03/31 04:10:53;;;;;;;21.92;15.80;;;;;;;-0.75;100.00;100266.69;4952447;28;20044;-77
2022/03/31 04:13:19;;;;;;;20.73;16.38;;;;;;;-0.85;100.00;100258.63;4930509;28;20496;-78
2022/03/31 04:15:45;;;;;;;23.67;16.38;;;;;;;-0.79;100.00;100263.44;4951542;28;20105;-79
2022/03/31 04:18:11;;;;;;;20.63;16.52;;;;;;;-0.92;100.00;100253.88;4969437;28;20031;-77
2022/03/31 04:20:36;;;;;;;23.20;17.30;;;;;;;-0.89;100.00;100271.75;4966146;28;20122;-81
2022/03/31 04:23:02;;;;;;;20.75;17.10;;;;;;;-0.88;100.00;100268.28;4968024;28;20045;-75
2022/03/31 04:25:28;;;;;;;23.65;17.42;;;;;;;-0.92;100.00;100270.19;4979009;28;20046;-76
2022/03/31 04:27:53;;;;;;;20.00;16.27;;;;;;;-0.96;100.00;100253.25;4934217;28;20043;-78
2022/03/31 04:30:21;;;;;;;22.65;16.60;;;;;;;-0.82;100.00;100273.06;4965131;28;20051;-77
2022/03/31 04:32:48;;;;;;;21.85;16.55;;;;;;;-0.85;100.00;100257.78;4966650;28;20049;-76
2022/03/31 04:35:15;;;;;;;24.13;16.73;;;;;;;-0.86;100.00;100259.53;4965717;28;20047;-78
2022/03/31 04:37:40;;;;;;;21.75;15.82;;;;;;;-0.87;100.00;100267.34;4961991;28;20042;-78
2022/03/31 04:40:08;;;;;;;19.83;16.63;;;;;;;-0.84;100.00;100262.03;4951084;28;20041;-77
2022/03/31 04:42:35;;;;;;;20.90;15.63;;;;;;;-0.76;100.00;100266.75;4968462;28;20126;-79
2022/03/31 04:45:02;;;;;;;24.17;16.33;;;;;;;-0.86;100.00;100276.75;4954595;28;20062;-78
2022/03/31 04:47:29;;;;;;;20.80;15.70;;;;;;;-0.86;100.00;100263.88;4947167;28;20616;-79
2022/03/31 04:49:55;;;;;;;22.08;16.27;;;;;;;-0.95;100.00;100259.22;4953494;28;20039;-76
2022/03/31 04:52:21;;;;;;;22.45;16.33;;;;;;;-0.87;100.00;100273.31;4969465;28;20094;-79
2022/03/31 04:54:47;;;;;;;22.65;16.55;;;;;;;-0.88;100.00;100266.53;4952181;28;20189;-77
2022/03/31 04:57:14;;;;;;;19.98;16.42;;;;;;;-0.92;100.00;100269.34;4953067;28;20038;-80
2022/03/31 04:59:41;;;;;;;22.45;16.77;;;;;;;-0.94;100.00;100274.59;4929017;28;20047;-79
2022/03/31 05:02:07;;;;;;;23.52;16.63;;;;;;;-0.96;100.00;100276.41;4963640;28;20027;-77
2022/03/31 05:04:33;;;;;;;19.23;15.48;;;;;;;-0.92;100.00;100279.63;4954797;28;20038;-76
2022/03/31 05:06:59;;;;;;;19.70;15.45;;;;;;;-0.99;100.00;100281.72;4950263;28;20045;-79
2022/03/31 05:09:24;;;;;;;21.02;15.05;;;;;;;-0.96;100.00;100284.16;4931028;28;20047;-78
2022/03/31 05:11:50;;;;;;;21.55;16.50;;;;;;;-1.03;100.00;100278.50;4949429;29;20035;-77
2022/03/31 05:14:16;;;;;;;19.80;15.75;;;;;;;-0.98;100.00;100288.53;4964291;28;20579;-78
2022/03/31 05:16:41;;;;;;;19.75;14.77;;;;;;;-0.99;100.00;100292.84;4951540;28;20034;-77
2022/03/31 05:19:08;;;;;;;22.58;15.98;;;;;;;-1.04;100.00;100281.97;4961649;28;20042;-76
2022/03/31 05:21:34;;;;;;;18.80;14.73;;;;;;;-1.05;100.00;100282.06;4980109;28;20548;-76
2022/03/31 05:23:59;;;;;;;19.42;15.65;;;;;;;-1.05;100.00;100279.50;4965364;28;20026;-78
2022/03/31 05:26:25;;;;;;;20.10;15.13;;;;;;;-1.03;100.00;100286.22;4946456;28;20097;-76
2022/03/31 05:28:51;;;;;;;18.85;14.43;;;;;;;-1.04;100.00;100281.97;4961289;28;20039;-77
2022/03/31 05:31:17;;;;;;;18.88;14.15;;;;;;;-1.08;100.00;100277.91;4945945;28;20035;-77
2022/03/31 05:33:42;;;;;;;20.38;14.27;;;;;;;-1.17;100.00;100273.25;4964247;28;20039;-76
2022/03/31 05:36:08;;;;;;;21.80;13.90;;;;;;;-1.19;100.00;100281.06;4957421;28;20506;-77
2022/03/31 05:38:33;;;;;;;21.70;14.82;;;;;;;-1.21;100.00;100288.03;4964138;28;20040;-77
2022/03/31 05:41:00;;;;;;;20.73;14.93;;;;;;;-1.20;100.00;100284.53;4951669;28;20116;-77
2022/03/31 05:43:26;;;;;;;21.50;14.77;;;;;;;-1.29;100.00;100281.66;4947468;28;20070;-78
2022/03/31 05:45:51;;;;;;;17.70;13.32;;;;;;;-1.38;100.00;100277.81;4950158;28;20062;-78
2022/03/31 05:48:17;;;;;;;22.08;13.10;;;;;;;-1.30;100.00;100293.69;4949783;28;20490;-77
2022/03/31 05:50:43;;;;;;;21.00;14.88;;;;;;;-1.30;100.00;100306.56;4967491;28;20042;-77
2022/03/31 05:53:09;;;;;;;17.70;13.07;;;;;;;-1.33;100.00;100301.56;4950371;28;20129;-77
2022/03/31 05:55:34;;;;;;;16.85;12.23;;;;;;;-1.42;100.00;100305.44;4964534;28;20050;-77
2022/03/31 05:58:00;;;;;;;20.17;13.70;;;;;;;-1.34;100.00;100306.78;4971220;28;20476;-77
2022/03/31 06:00:26;;;;;;;21.83;14.23;;;;;;;-1.32;100.00;100316.06;4952338;28;20038;-76
2022/03/31 06:02:53;;;;;;;18.63;13.13;;;;;;;-1.43;100.00;100314.09;4953117;28;20058;-77
2022/03/31 06:05:21;;;;;;;21.75;13.15;;;;;;;-1.44;100.00;100320.13;4931094;28;20046;-76
2022/03/31 06:07:47;;;;;;;20.00;13.48;;;;;;;-1.47;100.00;100317.72;4963368;28;20078;-75
2022/03/31 06:10:13;;;;;;;20.02;13.02;;;;;;;-1.48;100.00;100321.19;4953660;28;20043;-77
2022/03/31 06:12:38;;;;;;;21.73;12.43;;;;;;;-1.50;100.00;100324.78;4952889;28;20488;-77
2022/03/31 06:15:06;;;;;;;20.85;12.82;;;;;;;-1.43;100.00;100333.81;4953055;28;20047;-76
2022/03/31 06:17:33;;;;;;;19.65;13.25;;;;;;;-1.47;100.00;100325.44;4966225;28;20057;-77
2022/03/31 06:19:59;;;;;;;22.27;12.80;;;;;;;-1.57;100.00;100326.81;4967228;28;20039;-76
2022/03/31 06:22:25;;;;;;;18.83;11.68;;;;;;;-1.51;100.00;100333.38;4980508;28;20389;-76
2022/03/31 06:24:50;;;;;;;18.63;11.77;;;;;;;-1.46;100.00;100337.38;4951161;28;20026;-75
2022/03/31 06:27:16;;;;;;;18.65;11.07;;;;;;;-1.49;100.00;100334.13;4953546;28;20373;-76
2022/03/31 06:29:46;;;;;;;19.08;11.32;;;;;;;-1.50;100.00;100335.88;4963454;28;20038;-75
2022/03/31 06:32:15;;;;;;;22.63;11.10;;;;;;;-1.49;100.00;100347.00;4966306;28;20045;-75
2022/03/31 06:34:41;;;;;;;15.80;11.07;;;;;;;-1.42;100.00;100361.22;4968630;28;20042;-74
2022/03/31 06:37:08;;;;;;;20.98;10.60;;;;;;;-1.52;100.00;100363.44;4964255;28;20035;-76
2022/03/31 06:39:33;;;;;;;18.75;10.27;;;;;;;-1.49;100.00;100355.53;4966157;28;20042;-76
2022/03/31 06:42:00;;;;;;;17.95;10.05;;;;;;;-1.52;100.00;100360.03;4951725;28;20038;-75
2022/03/31 06:44:26;;;;;;;18.95;10.32;;;;;;;-1.53;100.00;100359.19;4971642;28;20058;-76
2022/03/31 06:46:52;;;;;;;23.77;10.60;;;;;;;-1.47;100.00;100361.47;4951541;28;20035;-76
2022/03/31 06:49:18;;;;;;;16.73;9.77;;;;;;;-1.46;100.00;100368.25;4953087;28;20082;-76
2022/03/31 06:51:44;;;;;;;18.08;10.40;;;;;;;-1.39;100.00;100369.59;4953598;28;20042;-77
2022/03/31 06:54:10;;;;;;;19.05;9.55;;;;;;;-1.43;100.00;100372.41;4967931;28;20039;-76
2022/03/31 06:56:36;;;;;;;21.38;10.13;;;;;;;-1.43;100.00;100370.69;4970151;28;20038;-77
2022/03/31 06:59:02;;;;;;;16.20;9.57;;;;;;;-1.45;100.00;100376.78;4943482;28;20032;-76
2022/03/31 07:01:28;;;;;;;13.20;8.85;;;;;;;-1.49;100.00;100373.53;4939862;28;20043;-77
2022/03/31 07:03:54;;;;;;;16.08;9.38;;;;;;;-1.50;100.00;100377.03;4955129;28;20476;-76
2022/03/31 07:06:21;;;;;;;13.75;9.98;;;;;;;-1.54;100.00;100385.84;4947767;28;20043;-75
2022/03/31 07:08:47;;;;;;;16.20;9.32;;;;;;;-1.50;100.00;100381.38;4979250;28;20039;-77
2022/03/31 07:11:13;;;;;;;13.73;9.38;;;;;;;-1.54;100.00;100378.13;4964619;28;20090;-77
2022/03/31 07:13:39;;;;;;;14.45;9.38;;;;;;;-1.58;100.00;100381.75;4951766;28;20042;-76
2022/03/31 07:16:06;;;;;;;13.30;9.32;;;;;;;-1.47;100.00;100379.47;4963025;28;20039;-77
2022/03/31 07:18:32;;;;;;;13.77;8.95;;;;;;;-1.56;100.00;100377.38;4978552;28;20087;-76
2022/03/31 07:20:58;;;;;;;19.15;9.50;;;;;;;-1.48;100.00;100384.69;4953948;28;20109;-75
2022/03/31 07:23:25;;;;;;;15.82;10.27;;;;;;;-1.60;100.00;100375.81;4966491;28;20066;-75
2022/03/31 07:25:57;;;;;;;15.02;9.85;;;;;;;-1.47;100.00;100400.06;4955984;28;20035;-76
2022/03/31 07:28:23;;;;;;;18.83;10.30;;;;;;;-1.37;100.00;100392.69;4972271;28;20047;-75
2022/03/31 07:30:50;;;;;;;14.13;8.90;;;;;;;-1.38;100.00;100402.13;4969891;28;20046;-77
2022/03/31 07:33:18;;;;;;;14.63;9.07;;;;;;;-1.28;100.00;100388.78;4970009;28;20034;-74
2022/03/31 07:35:44;;;;;;;12.35;8.57;;;;;;;-1.23;100.00;100390.22;4970867;28;20034;-73
2022/03/31 07:38:10;;;;;;;12.40;8.98;;;;;;;-1.15;100.00;100394.97;4958602;28;20042;-73
2022/03/31 07:40:39;;;;;;;16.75;9.45;;;;;;;-1.10;100.00;100393.00;4966966;28;20031;-74
2022/03/31 07:43:06;;;;;;;12.30;8.80;;;;;;;-1.08;100.00;100386.00;4927090;28;20460;-73
2022/03/31 07:45:36;;;;;;;14.02;8.52;;;;;;;-1.05;100.00;100396.16;4966627;28;20035;-75
2022/03/31 07:48:06;;;;;;;14.75;9.05;;;;;;;-1.04;100.00;100391.84;4941914;28;20117;-76
2022/03/31 07:50:33;;;;;;;15.73;8.40;;;;;;;-0.98;100.00;100394.06;4949289;28;20043;-77
2022/03/31 07:52:59;;;;;;;10.73;7.55;;;;;;;-0.99;100.00;100382.13;4952224;28;20042;-76
2022/03/31 07:55:24;;;;;;;11.20;7.80;;;;;;;-0.96;100.00;100387.13;4962400;28;20732;-76
2022/03/31 07:57:51;;;;;;;10.35;7.30;;;;;;;-1.09;100.00;100375.78;4969352;28;20126;-76
2022/03/31 08:00:18;;;;;;;17.55;7.70;;;;;;;-0.96;100.00;100387.13;4941117;28;20038;-76
2022/03/31 08:02:47;;;;;;;12.65;7.68;;;;;;;-1.15;100.00;100404.44;4949636;28;20068;-77
2022/03/31 08:05:18;;;;;;;14.80;7.70;;;;;;;-1.05;100.00;100403.06;4969766;28;20034;-75
2022/03/31 08:07:45;;;;;;;14.40;6.90;;;;;;;-0.91;100.00;100398.00;4963450;28;20376;-74
2022/03/31 08:10:11;;;;;;;12.23;6.90;;;;;;;-0.86;100.00;100398.59;4967019;28;20118;-78
2022/03/31 08:12:37;;;;;;;13.43;7.55;;;;;;;-0.80;100.00;100402.59;4964520;28;20123;-75
2022/03/31 08:15:04;;;;;;;7.57;6.00;;;;;;;-0.53;100.00;100405.41;4959429;28;20038;-75
2022/03/31 08:17:30;;;;;;;11.05;6.43;;;;;;;-0.46;100.00;100401.59;4976026;28;20031;-77
2022/03/31 08:19:56;;;;;;;10.02;5.90;;;;;;;-0.38;100.00;100401.16;4967689;28;20030;-77
2022/03/31 08:22:23;;;;;;;9.70;5.70;;;;;;;-0.45;100.00;100397.28;4947346;28;20808;-75
2022/03/31 08:24:49;;;;;;;10.70;5.70;;;;;;;-0.46;100.00;100400.75;4962062;28;20519;-75
2022/03/31 08:27:15;;;;;;;13.50;5.60;;;;;;;-0.37;100.00;100402.84;4966275;28;20027;-76
2022/03/31 08:29:40;;;;;;;9.98;5.30;;;;;;;-0.50;100.00;100410.41;4948447;28;20039;-77
2022/03/31 08:32:10;;;;;;;10.23;5.53;;;;;;;-0.69;100.00;100414.91;4932609;28;20039;-75
2022/03/31 08:34:36;;;;;;;6.90;5.05;;;;;;;-0.58;100.00;100407.41;4963949;28;20114;-75
2022/03/31 08:37:02;;;;;;;11.45;5.45;;;;;;;-0.65;100.00;100414.63;4949162;28;20039;-75
2022/03/31 08:39:28;;;;;;;11.40;5.60;;;;;;;-0.19;100.00;100413.84;4980642;28;20085;-76
2022/03/31 08:41:54;;;;;;;9.00;4.90;;;;;;;-0.24;100.00;100401.22;4963390;28;20034;-74
2022/03/31 08:44:22;;;;;;;8.88;5.28;;;;;;;-0.06;100.00;100417.44;4949062;28;20051;-76
2022/03/31 08:46:49;;;;;;;11.45;4.90;;;;;;;-0.28;100.00;100415.22;4945485;28;20097;-76
2022/03/31 08:49:16;;;;;;;7.88;4.90;;;;;;;-0.24;100.00;100405.56;4948865;28;20372;-75
2022/03/31 08:51:46;;;;;;;5.60;4.80;;;;;;;-0.07;100.00;100415.75;4930622;28;21841;-76
2022/03/31 08:54:12;;;;;;;6.78;4.80;;;;;;;0.16;100.00;100411.03;4964429;28;20031;-76
2022/03/31 08:56:38;;;;;;;9.45;4.57;;;;;;;0.02;100.00;100411.00;4963207;28;20484;-77
2022/03/31 08:59:04;;;;;;;7.70;4.82;;;;;;;0.08;100.00;100416.66;4950922;28;20065;-75
2022/03/31 09:01:32;;;;;;;7.97;4.78;;;;;;;-0.03;100.00;100424.16;4964375;28;20488;-76
2022/03/31 09:03:58;;;;;;;9.40;4.75;;;;;;;-0.02;100.00;100412.91;4951892;28;20101;-74
2022/03/31 09:06:28;;;;;;;6.47;4.78;;;;;;;0.23;100.00;100420.09;4929951;28;20031;-76
2022/03/31 09:08:55;;;;;;;7.60;4.40;;;;;;;0.43;100.00;100415.53;4945133;28;20046;-76
2022/03/31 09:11:32;;;;;;;8.27;4.72;;;;;;;0.52;100.00;100415.00;4938021;28;20150;-75
2022/03/31 09:14:00;;;;;;;9.00;4.68;;;;;;;0.48;100.00;100421.25;4964386;28;20065;-76
2022/03/31 09:16:32;;;;;;;8.77;4.57;;;;;;;0.94;100.00;100421.94;4935802;28;20473;-76
2022/03/31 09:19:15;;;;;;;8.15;4.88;;;;;;;1.18;100.00;100421.38;4945665;28;20023;-76
2022/03/31 09:21:52;;;;;;;8.05;4.28;;;;;;;1.13;100.00;100426.81;4968189;28;20079;-76
2022/03/31 09:24:23;;;;;;;6.82;4.35;;;;;;;1.38;100.00;100420.16;4939241;28;20527;-76
2022/03/31 09:26:50;;;;;;;8.07;4.57;;;;;;;1.22;100.00;100419.44;4943562;29;20031;-76
2022/03/31 09:29:19;;;;;;;8.77;4.15;;;;;;;1.25;100.00;100420.06;4950104;28;20034;-75
2022/03/31 09:31:47;;;;;;;11.38;4.20;;;;;;;1.40;100.00;100425.22;4949477;28;20450;-76
2022/03/31 09:34:13;;;;;;;5.95;4.28;;;;;;;1.71;100.00;100424.97;4960118;28;20031;-75
2022/03/31 09:36:47;;;;;;;7.05;4.35;;;;;;;1.73;100.00;100420.53;4961955;28;20038;-76
2022/03/31 09:39:17;;;;;;;7.32;3.75;;;;;;;2.04;100.00;100423.72;4948471;28;20037;-76
2022/03/31 09:41:47;;;;;;;5.75;3.60;;;;;;;2.12;100.00;100426.63;4966220;28;20752;-76
2022/03/31 09:44:17;;;;;;;6.25;4.15;;;;;;;2.01;100.00;100418.72;4966333;28;20064;-76
2022/03/31 09:46:43;;;;;;;5.75;3.85;;;;;;;2.27;100.00;100422.22;4980909;28;20031;-76
2022/03/31 09:49:21;;;;;;;7.50;3.80;;;;;;;2.52;99.93;100416.25;4935960;28;20062;-77
2022/03/31 09:51:49;;;;;;;6.10;3.67;;;;;;;2.43;99.83;100414.28;4958584;28;20042;-76
2022/03/31 09:54:16;;;;;;;6.47;4.00;;;;;;;2.49;98.75;100428.56;4949755;28;20117;-75
2022/03/31 09:56:41;;;;;;;9.25;3.83;;;;;;;2.59;96.42;100433.97;4965600;28;20043;-75
2022/03/31 09:59:10;;;;;;;5.15;3.80;;;;;;;2.53;97.15;100427.44;4963493;28;20066;-74
2022/03/31 10:01:38;;;;;;;7.88;3.67;;;;;;;2.58;98.54;100432.28;4971980;28;20041;-75
2022/03/31 10:04:06;;;;;;;6.25;3.75;;;;;;;2.69;98.66;100430.66;4949158;28;20484;-77
2022/03/31 10:06:37;;;;;;;8.23;3.47;;;;;;;2.85;96.59;100435.63;4961026;28;20039;-76
2022/03/31 10:09:05;;;;;;;5.75;3.53;;;;;;;2.73;95.88;100428.66;4960891;28;20027;-75
2022/03/31 10:11:33;;;;;;;6.70;3.78;;;;;;;2.69;96.58;100432.41;4964214;28;20050;-77
2022/03/31 10:14:17;;;;;;;7.53;4.60;;;;;;;2.83;96.88;100437.47;4934611;28;20042;-78
2022/03/31 10:17:06;;;;;;;9.50;3.90;;;;;;;3.08;95.99;100428.03;4941124;28;20126;-76
2022/03/31 10:19:40;;;;;;;5.22;3.60;;;;;;;3.40;96.55;100432.75;4950038;28;20039;-75
2022/03/31 10:22:09;;;;;;;7.32;3.70;;;;;;;3.52;91.41;100437.03;4948142;28;20579;-77
2022/03/31 10:24:41;;;;;;;6.97;3.40;;;;;;;3.48;90.46;100417.47;4963466;28;20112;-77
2022/03/31 10:27:09;;;;;;;4.80;2.90;;;;;;;3.54;87.94;100427.38;4934749;28;20774;-77
2022/03/31 10:29:41;;;;;;;5.28;3.22;;;;;;;3.37;85.10;100431.19;4965183;28;20497;-77
2022/03/31 10:32:23;;;;;;;7.70;3.00;;;;;;;3.18;81.70;100418.66;4935553;28;20050;-76
2022/03/31 10:34:53;;;;;;;3.50;2.72;;;;;;;3.20;82.51;100423.75;4934410;28;20035;-76
2022/03/31 10:37:34;;;;;;;5.15;3.15;;;;;;;3.29;80.78;100436.06;4935955;28;20097;-77
2022/03/31 10:40:01;;;;;;;5.47;2.83;;;;;;;3.27;81.21;100433.59;4942698;28;20039;-78
2022/03/31 10:42:26;;;;;;;8.10;3.30;;;;;;;3.30;80.86;100432.56;4953859;28;20064;-77
2022/03/31 10:45:12;;;;;;;4.85;3.10;;;;;;;3.38;80.48;100432.03;4945837;28;20118;-80
2022/03/31 10:47:40;;;;;;;3.80;2.58;;;;;;;3.48;77.58;100428.69;4974584;28;20086;-77
2022/03/31 10:50:09;;;;;;;4.57;2.95;;;;;;;3.44;77.61;100423.81;4950014;28;20035;-78
2022/03/31 10:52:35;;;;;;;6.57;3.15;;;;;;;3.50;77.80;100429.41;4992887;28;20067;-80
2022/03/31 10:55:10;;;;;;;8.45;2.60;;;;;;;3.66;78.24;100426.53;4957642;28;20089;-79
2022/03/31 10:57:41;;;;;;;3.35;2.65;;;;;;;3.69;79.04;100423.72;4981922;28;20103;-81
2022/03/31 11:00:10;;;;;;;6.00;2.58;;;;;;;3.71;77.59;100421.00;4984718;28;20035;-78
2022/03/31 11:02:44;;;;;;;4.85;2.95;;;;;;;3.85;77.35;100417.44;4964860;28;20044;-80
2022/03/31 11:05:10;;;;;;;11.07;2.60;;;;;;;3.80;73.66;100429.91;4955679;28;20034;-76
2022/03/31 11:07:37;;;;;;;3.85;2.40;;;;;;;3.94;75.45;100418.50;4950187;28;20509;-76
2022/03/31 11:10:05;;;;;;;3.38;2.45;;;;;;;3.94;73.97;100415.91;4972179;28;20066;-77
2022/03/31 11:12:30;;;;;;;4.35;2.47;;;;;;;3.90;70.35;100425.72;4954924;28;20064;-76
2022/03/31 11:15:04;;;;;;;3.30;2.25;;;;;;;3.81;71.57;100403.03;4970067;28;20058;-77
2022/03/31 11:17:30;;;;;;;3.00;2.33;;;;;;;3.96;71.69;100407.09;4947646;28;20047;-76